createdAt,value
2022-11-14T00:01:34.110Z,9.00
2022-11-14T00:04:38.591Z,9.00
2022-11-14T00:07:44.269Z,9.00
2022-11-14T00:10:50.839Z,9.00
2022-11-14T00:13:58.269Z,9.00
2022-11-14T00:17:04.481Z,9.00
2022-11-14T00:20:11.945Z,9.10
2022-11-14T00:23:16.679Z,9.10
2022-11-14T00:26:21.658Z,9.10
2022-11-14T00:29:26.692Z,9.10
2022-11-14T00:32:31.417Z,9.10
2022-11-14T00:35:36.244Z,9.10
2022-11-14T00:38:42.431Z,9.10
2022-11-14T00:41:47.104Z,9.10
2022-11-14T00:44:51.957Z,9.10
2022-11-14T00:47:56.788Z,9.00
2022-11-14T00:51:01.727Z,8.90
2022-11-14T00:54:06.656Z,8.90
2022-11-14T00:57:11.818Z,8.90
2022-11-14T01:00:16.962Z,8.90
2022-11-14T01:03:22.079Z,8.80
2022-11-14T01:06:27.045Z,8.90
2022-11-14T01:09:31.812Z,8.90
2022-11-14T01:12:36.168Z,8.90
2022-11-14T01:15:41.894Z,8.90
2022-11-14T01:18:46.690Z,9.00
2022-11-14T01:21:51.341Z,9.10
2022-11-14T01:24:58.335Z,9.20
2022-11-14T01:28:07.526Z,9.20
2022-11-14T01:31:16.783Z,9.30
2022-11-14T01:34:21.469Z,9.40
2022-11-14T01:37:26.066Z,9.40
2022-11-14T01:40:31.955Z,9.40
2022-11-14T01:43:39.494Z,9.50
2022-11-14T01:46:50.019Z,9.50
2022-11-14T01:49:58.584Z,9.50
2022-11-14T01:53:03.375Z,9.50
2022-11-14T01:56:11.199Z,9.50
2022-11-14T01:59:20.155Z,9.60
2022-11-14T02:02:25.793Z,9.60
2022-11-14T02:05:31.722Z,9.60
2022-11-14T02:08:37.204Z,9.60
2022-11-14T02:11:48.415Z,9.60
2022-11-14T02:14:56.190Z,9.60
2022-11-14T02:18:02.297Z,9.70
2022-11-14T02:21:07.046Z,9.70
2022-11-14T02:24:13.120Z,9.80
2022-11-14T02:27:17.785Z,9.80
2022-11-14T02:30:23.351Z,9.90
2022-11-14T02:33:28.666Z,10.00
2022-11-14T02:36:33.589Z,10.10
2022-11-14T02:39:39.162Z,10.20
2022-11-14T02:42:43.972Z,10.30
2022-11-14T02:45:48.586Z,10.30
2022-11-14T02:48:56.268Z,10.40
2022-11-14T02:52:00.940Z,10.40
2022-11-14T02:55:06.377Z,10.40
2022-11-14T02:58:12.124Z,10.40
2022-11-14T03:01:21.540Z,10.50
2022-11-14T03:04:26.895Z,10.50
2022-11-14T03:07:32.436Z,10.40
2022-11-14T03:10:36.798Z,10.40
2022-11-14T03:13:41.628Z,10.40
2022-11-14T03:16:45.814Z,10.40
2022-11-14T03:19:50.670Z,10.40
2022-11-14T03:22:55.439Z,10.40
2022-11-14T03:26:06.027Z,10.40
2022-11-14T03:29:17.374Z,10.30
2022-11-14T03:32:22.112Z,10.40
2022-11-14T03:35:26.938Z,10.40
2022-11-14T03:38:33.404Z,10.40
2022-11-14T03:41:38.405Z,10.40
2022-11-14T03:44:42.977Z,10.40
2022-11-14T03:47:47.743Z,10.40
2022-11-14T03:50:55.201Z,10.40
2022-11-14T03:53:59.978Z,10.40
2022-11-14T03:57:05.059Z,10.40
2022-11-14T04:00:10.496Z,10.30
2022-11-14T04:03:15.617Z,10.40
2022-11-14T04:06:20.392Z,10.30
2022-11-14T04:09:25.239Z,10.40
2022-11-14T04:12:55.709Z,10.40
2022-11-14T04:16:00.435Z,10.40
2022-11-14T04:19:05.218Z,10.40
2022-11-14T04:22:10.428Z,10.40
2022-11-14T04:25:14.827Z,10.50
2022-11-14T04:28:19.576Z,10.40
2022-11-14T04:31:24.486Z,10.50
2022-11-14T04:34:29.457Z,10.50
2022-11-14T04:37:34.256Z,10.50
2022-11-14T04:40:38.967Z,10.50
2022-11-14T04:43:49.494Z,10.40
2022-11-14T04:46:55.675Z,10.40
2022-11-14T04:50:00.233Z,10.40
2022-11-14T04:53:05.824Z,10.50
2022-11-14T04:56:10.874Z,10.40
2022-11-14T04:59:20.679Z,10.50
2022-11-14T05:02:25.815Z,10.40
2022-11-14T05:05:32.151Z,10.40
2022-11-14T05:08:36.893Z,10.50
2022-11-14T05:11:41.662Z,10.50
2022-11-14T05:14:46.372Z,10.50
2022-11-14T05:17:51.554Z,10.60
2022-11-14T05:20:59.265Z,10.70
2022-11-14T05:24:04.174Z,10.70
2022-11-14T05:27:08.826Z,10.70
2022-11-14T05:30:13.989Z,10.80
2022-11-14T05:33:18.720Z,10.80
2022-11-14T05:36:23.178Z,10.80
2022-11-14T05:39:27.884Z,10.80
2022-11-14T05:42:33.189Z,10.90
2022-11-14T05:45:37.816Z,10.90
2022-11-14T05:48:42.986Z,10.90
2022-11-14T05:51:50.138Z,10.90
2022-11-14T05:54:54.788Z,11.00
2022-11-14T05:57:59.981Z,11.00
2022-11-14T06:01:17.315Z,11.00
2022-11-14T06:04:22.989Z,11.10
2022-11-14T06:07:29.948Z,11.10
2022-11-14T06:10:36.289Z,11.10
2022-11-14T06:13:42.151Z,11.10
2022-11-14T06:16:49.490Z,11.10
2022-11-14T06:19:55.112Z,11.00
2022-11-14T06:22:59.928Z,11.00
2022-11-14T06:26:07.607Z,10.90
2022-11-14T06:29:12.530Z,10.90
2022-11-14T06:32:17.493Z,10.80
2022-11-14T06:35:22.353Z,10.80
2022-11-14T06:38:28.016Z,10.70
2022-11-14T06:41:33.045Z,10.70
2022-11-14T06:44:43.654Z,10.70
2022-11-14T06:47:48.762Z,10.60
2022-11-14T06:50:54.793Z,10.50
2022-11-14T06:53:59.627Z,10.50
2022-11-14T06:57:04.538Z,10.40
2022-11-14T07:00:09.978Z,10.30
2022-11-14T07:03:15.305Z,10.20
2022-11-14T07:06:25.714Z,10.10
2022-11-14T07:09:30.446Z,10.10
2022-11-14T07:12:35.610Z,10.10
2022-11-14T07:15:40.263Z,10.00
2022-11-14T07:18:44.641Z,10.00
2022-11-14T07:21:49.209Z,10.00
2022-11-14T07:24:54.271Z,9.90
2022-11-14T07:27:59.189Z,10.00
2022-11-14T07:31:08.779Z,10.00
2022-11-14T07:34:13.888Z,10.00
2022-11-14T07:37:18.745Z,10.10
2022-11-14T07:40:24.058Z,10.00
2022-11-14T07:43:29.214Z,10.10
2022-11-14T07:46:34.224Z,10.10
2022-11-14T07:49:39.366Z,10.10
2022-11-14T07:52:44.267Z,10.20
2022-11-14T07:55:49.025Z,10.20
2022-11-14T07:58:53.799Z,10.20
2022-11-14T08:01:58.587Z,10.20
2022-11-14T08:05:03.507Z,10.20
2022-11-14T08:08:08.050Z,10.30
2022-11-14T08:11:31.754Z,10.40
2022-11-14T08:14:40.176Z,10.40
2022-11-14T08:17:44.824Z,10.50
2022-11-14T08:20:49.541Z,10.60
2022-11-14T08:23:54.398Z,10.70
2022-11-14T08:26:59.643Z,10.70
2022-11-14T08:30:05.277Z,10.80
2022-11-14T08:33:09.902Z,10.90
2022-11-14T08:36:14.798Z,11.00
2022-11-14T08:39:20.390Z,11.00
2022-11-14T08:42:25.049Z,11.10
2022-11-14T08:45:33.065Z,11.20
2022-11-14T08:48:38.191Z,11.30
2022-11-14T08:51:42.547Z,11.40
2022-11-14T08:54:47.364Z,11.50
2022-11-14T08:57:53.844Z,11.60
2022-11-14T09:01:03.756Z,11.70
2022-11-14T09:04:09.135Z,11.70
2022-11-14T09:07:14.039Z,11.80
2022-11-14T09:10:19.163Z,11.80
2022-11-14T09:13:24.032Z,11.80
2022-11-14T09:16:31.936Z,11.80
2022-11-14T09:19:42.600Z,11.90
2022-11-14T09:22:49.240Z,12.00
2022-11-14T09:25:54.969Z,12.00
2022-11-14T09:29:02.189Z,12.10
2022-11-14T09:32:06.827Z,12.10
2022-11-14T09:35:12.828Z,12.20
2022-11-14T09:38:20.071Z,12.20
2022-11-14T09:41:39.339Z,12.30
2022-11-14T09:44:49.896Z,12.30
2022-11-14T09:48:03.310Z,12.30
2022-11-14T09:51:15.100Z,12.40
2022-11-14T09:54:20.370Z,12.50
2022-11-14T09:57:26.647Z,12.50
2022-11-14T10:00:55.348Z,12.60
2022-11-14T10:04:10.100Z,12.60
2022-11-14T10:07:58.852Z,12.70
2022-11-14T10:11:34.941Z,12.80
2022-11-14T10:15:09.276Z,13.00
2022-11-14T10:18:29.669Z,13.00
2022-11-14T10:21:52.430Z,13.10
2022-11-14T10:25:21.071Z,13.20
2022-11-14T10:28:29.083Z,13.40
2022-11-14T10:31:43.390Z,13.50
2022-11-14T10:35:07.930Z,13.50
2022-11-14T10:38:27.720Z,13.60
2022-11-14T10:41:55.982Z,13.70
2022-11-14T10:45:19.261Z,13.80
2022-11-14T10:48:39.888Z,14.00
2022-11-14T10:51:47.787Z,14.10
2022-11-14T10:55:00.165Z,14.10
2022-11-14T10:58:11.007Z,14.10
2022-11-14T11:01:36.995Z,14.20
2022-11-14T11:04:44.225Z,14.30
2022-11-14T11:08:28.623Z,14.30
2022-11-14T11:11:39.715Z,14.30
2022-11-14T11:14:46.220Z,14.20
2022-11-14T11:17:57.417Z,14.20
2022-11-14T11:21:14.462Z,14.20
2022-11-14T11:24:38.298Z,14.20
2022-11-14T11:27:43.018Z,14.20
2022-11-14T11:31:00.322Z,14.20
2022-11-14T11:34:09.314Z,14.20
2022-11-14T11:40:34.125Z,14.20
2022-11-14T11:43:46.314Z,14.20
2022-11-14T11:46:56.289Z,14.30
2022-11-14T11:50:02.312Z,14.40
2022-11-14T11:53:18.636Z,14.50
2022-11-14T11:56:29.934Z,14.70
2022-11-14T11:59:34.820Z,14.90
2022-11-14T12:02:49.440Z,15.00
2022-11-14T12:06:09.593Z,15.10
2022-11-14T12:10:08.277Z,15.10
2022-11-14T12:13:26.029Z,15.10
2022-11-14T12:16:56.477Z,15.20
2022-11-14T12:20:25.606Z,15.20
2022-11-14T12:23:39.561Z,15.20
2022-11-14T12:27:06.298Z,15.10
2022-11-14T12:30:18.378Z,15.00
2022-11-14T12:33:36.985Z,15.00
2022-11-14T12:36:44.631Z,15.00
2022-11-14T12:40:07.307Z,15.10
2022-11-14T12:43:37.469Z,15.10
2022-11-14T12:47:04.183Z,15.00
2022-11-14T12:50:31.296Z,15.00
2022-11-14T12:53:35.917Z,15.00
2022-11-14T12:56:54.198Z,15.10
2022-11-14T13:00:04.586Z,15.10
2022-11-14T13:03:27.891Z,15.10
2022-11-14T13:06:46.069Z,15.10
2022-11-14T13:10:14.472Z,15.00
2022-11-14T13:13:38.150Z,15.10
2022-11-14T13:17:01.695Z,15.20
2022-11-14T13:20:49.961Z,15.30
2022-11-14T13:23:55.935Z,15.40
2022-11-14T13:27:45.147Z,15.50
2022-11-14T13:31:14.966Z,15.50
2022-11-14T13:34:53.744Z,15.60
2022-11-14T13:38:38.413Z,15.70
2022-11-14T13:41:49.257Z,15.70
2022-11-14T13:45:31.662Z,15.70
2022-11-14T13:49:20.738Z,15.80
2022-11-14T13:52:31.243Z,15.90
2022-11-14T13:56:11.482Z,15.90
2022-11-14T13:59:35.132Z,15.90
2022-11-14T14:03:07.933Z,16.00
2022-11-14T14:06:32.234Z,16.00
2022-11-14T14:09:55.299Z,15.90
2022-11-14T14:13:22.467Z,15.90
2022-11-14T14:17:02.206Z,15.90
2022-11-14T14:20:19.745Z,15.80
2022-11-14T14:23:50.900Z,15.80
2022-11-14T14:27:14.160Z,15.70
2022-11-14T14:30:19.772Z,15.70
2022-11-14T14:33:25.383Z,15.60
2022-11-14T14:36:33.886Z,15.60
2022-11-14T14:39:38.424Z,15.60
2022-11-14T14:42:47.135Z,15.60
2022-11-14T14:45:53.775Z,15.60
2022-11-14T14:49:01.835Z,15.60
2022-11-14T14:52:20.874Z,15.50
2022-11-14T14:55:32.674Z,15.50
2022-11-14T14:58:38.563Z,15.40
2022-11-14T15:01:44.219Z,15.40
2022-11-14T15:04:49.318Z,15.30
2022-11-14T15:07:57.318Z,15.30
2022-11-14T15:11:03.490Z,15.30
2022-11-14T15:14:15.003Z,15.30
2022-11-14T15:17:21.675Z,15.30
2022-11-14T15:20:28.372Z,15.20
2022-11-14T15:23:32.930Z,15.20
2022-11-14T15:26:37.799Z,15.10
2022-11-14T15:29:52.075Z,15.00
2022-11-14T15:32:58.938Z,15.00
2022-11-14T15:36:14.002Z,14.90
2022-11-14T15:39:28.381Z,14.80
2022-11-14T15:42:33.232Z,14.80
2022-11-14T15:45:41.521Z,14.70
2022-11-14T15:48:46.237Z,14.70
2022-11-14T15:52:02.766Z,14.70
2022-11-14T15:55:20.505Z,14.60
2022-11-14T15:58:29.368Z,14.50
2022-11-14T16:01:34.219Z,14.50
2022-11-14T16:04:44.475Z,14.50
2022-11-14T16:07:50.842Z,14.50
2022-11-14T16:10:55.695Z,14.40
2022-11-14T16:14:00.742Z,14.40
2022-11-14T16:17:08.400Z,14.40
2022-11-14T16:20:36.061Z,14.40
2022-11-14T16:23:40.983Z,14.30
2022-11-14T16:26:46.637Z,14.30
2022-11-14T16:29:51.507Z,14.30
2022-11-14T16:32:56.456Z,14.30
2022-11-14T16:36:01.182Z,14.20
2022-11-14T16:39:11.435Z,14.20
2022-11-14T16:42:16.122Z,14.20
2022-11-14T16:45:22.375Z,14.20
2022-11-14T16:48:29.780Z,14.10
2022-11-14T16:51:50.013Z,14.10
2022-11-14T16:54:55.185Z,14.10
2022-11-14T16:57:59.943Z,14.10
2022-11-14T17:01:10.067Z,14.10
2022-11-14T17:04:18.010Z,14.10
2022-11-14T17:07:23.235Z,14.10
2022-11-14T17:10:28.324Z,14.10
2022-11-14T17:13:33.537Z,14.00
2022-11-14T17:16:38.482Z,14.00
2022-11-14T17:19:46.131Z,14.00
2022-11-14T17:22:51.172Z,14.00
2022-11-14T17:26:05.362Z,13.90
2022-11-14T17:29:12.766Z,13.90
2022-11-14T17:32:17.366Z,13.90
2022-11-14T17:35:22.150Z,13.90
2022-11-14T17:38:26.847Z,13.80
2022-11-14T17:41:33.579Z,13.80
2022-11-14T17:44:38.549Z,13.80
2022-11-14T17:47:43.479Z,13.70
2022-11-14T17:50:48.437Z,13.70
2022-11-14T17:53:55.580Z,13.60
2022-11-14T17:57:01.089Z,13.50
2022-11-14T18:00:07.222Z,13.40
2022-11-14T18:03:14.355Z,13.40
2022-11-14T18:06:20.806Z,13.30
2022-11-14T18:09:26.841Z,13.20
2022-11-14T18:12:33.721Z,13.10
2022-11-14T18:15:39.469Z,13.10
2022-11-14T18:18:44.320Z,13.00
2022-11-14T18:21:53.527Z,13.00
2022-11-14T18:25:06.442Z,12.90
2022-11-14T18:28:12.342Z,12.80
2022-11-14T18:31:17.504Z,12.80
2022-11-14T18:34:22.547Z,12.80
2022-11-14T18:37:28.742Z,12.80
2022-11-14T18:40:33.522Z,12.80
2022-11-14T18:43:38.263Z,13.00
2022-11-14T18:46:42.958Z,13.00
2022-11-14T18:49:47.585Z,13.00
2022-11-14T18:52:52.631Z,13.10
2022-11-14T18:55:58.126Z,13.20
2022-11-14T18:59:03.036Z,13.20
2022-11-14T19:02:09.131Z,13.30
2022-11-14T19:05:14.373Z,13.30
2022-11-14T19:08:19.367Z,13.40
2022-11-14T19:11:42.633Z,13.40
2022-11-14T19:14:47.666Z,13.40
2022-11-14T19:17:52.214Z,13.30
2022-11-14T19:21:02.130Z,13.40
2022-11-14T19:24:07.501Z,13.30
2022-11-14T19:27:16.590Z,13.40
2022-11-14T19:30:21.269Z,13.40
2022-11-14T19:33:26.456Z,13.40
2022-11-14T19:36:58.961Z,13.40
2022-11-14T19:39:56.632Z,13.50
2022-11-14T19:43:04.142Z,13.50
2022-11-14T19:46:09.431Z,13.50
2022-11-14T19:49:13.970Z,13.50
2022-11-14T19:52:18.782Z,13.50
2022-11-14T19:55:23.711Z,13.50
2022-11-14T19:58:29.320Z,13.40
2022-11-14T20:01:34.147Z,13.40
2022-11-14T20:04:38.984Z,13.40
2022-11-14T20:07:43.838Z,13.40
2022-11-14T20:10:59.320Z,13.40
2022-11-14T20:14:05.596Z,13.40
2022-11-14T20:17:10.434Z,13.40
2022-11-14T20:20:15.077Z,13.40
2022-11-14T20:23:19.692Z,13.40
2022-11-14T20:26:25.002Z,13.40
2022-11-14T20:29:30.613Z,13.40
2022-11-14T20:32:35.587Z,13.40
2022-11-14T20:35:40.547Z,13.40
2022-11-14T20:38:45.791Z,13.40
2022-11-14T20:41:50.580Z,13.40
2022-11-14T20:44:55.454Z,13.30
2022-11-14T20:47:59.849Z,13.30
2022-11-14T20:51:09.161Z,13.40
2022-11-14T20:54:14.138Z,13.30
2022-11-14T20:57:19.137Z,13.30
2022-11-14T21:00:23.985Z,13.30
2022-11-14T21:03:28.790Z,13.30
2022-11-14T21:06:33.975Z,13.30
2022-11-14T21:09:38.795Z,13.30
2022-11-14T21:13:03.695Z,13.30
2022-11-14T21:16:11.343Z,13.20
2022-11-14T21:19:16.227Z,13.20
2022-11-14T21:22:21.098Z,13.20
2022-11-14T21:25:26.299Z,13.20
2022-11-14T21:28:32.714Z,13.10
2022-11-14T21:31:40.458Z,13.10
2022-11-14T21:34:45.324Z,13.10
2022-11-14T21:37:50.078Z,13.10
2022-11-14T21:40:55.693Z,13.00
2022-11-14T21:44:02.614Z,13.00
2022-11-14T21:47:07.241Z,12.90
2022-11-14T21:50:12.313Z,12.80
2022-11-14T21:53:17.297Z,12.70
2022-11-14T21:56:27.561Z,12.60
2022-11-14T21:59:32.299Z,12.50
2022-11-14T22:02:56.437Z,12.50
2022-11-14T22:06:01.580Z,12.50
2022-11-14T22:09:07.325Z,12.40
2022-11-14T22:12:12.149Z,12.40
2022-11-14T22:15:16.753Z,12.40
2022-11-14T22:18:21.650Z,12.40
2022-11-14T22:21:26.547Z,12.40
2022-11-14T22:24:31.314Z,12.40
2022-11-14T22:27:36.067Z,12.30
2022-11-14T22:30:40.725Z,12.20
2022-11-14T22:33:47.875Z,12.10
2022-11-14T22:36:52.384Z,12.10
2022-11-14T22:39:57.149Z,12.00
2022-11-14T22:43:02.166Z,11.90
2022-11-14T22:46:07.384Z,11.90
2022-11-14T22:49:11.966Z,11.80
2022-11-14T22:52:16.365Z,11.70
2022-11-14T22:55:20.681Z,11.70
2022-11-14T22:58:26.532Z,11.60
2022-11-14T23:01:33.025Z,11.60
2022-11-14T23:04:38.036Z,11.50
2022-11-14T23:07:42.710Z,11.40
2022-11-14T23:10:48.104Z,11.40
2022-11-14T23:13:54.777Z,11.40
2022-11-14T23:16:59.319Z,11.30
2022-11-14T23:20:04.811Z,11.30
2022-11-14T23:23:09.539Z,11.20
2022-11-14T23:26:17.649Z,11.20
2022-11-14T23:29:22.747Z,11.10
2022-11-14T23:32:27.784Z,11.00
2022-11-14T23:35:32.893Z,11.00
2022-11-14T23:38:37.960Z,10.90
2022-11-14T23:41:43.005Z,10.90
2022-11-14T23:44:47.659Z,10.90
2022-11-14T23:47:52.870Z,10.80
2022-11-14T23:50:57.896Z,10.80
2022-11-14T23:54:04.751Z,10.70
2022-11-14T23:57:09.527Z,10.70
